Terminal Aerodrome Forecast
Issued by NWS Duluth, MN

Home | Current Version | Previous Version | Text Only | Print | Product List | Glossary On
Versions: 1 2 3 4 5 6 7 8 9 10 11 12 13 14 15 16 17 18 19 20 21 22 23
871
FTUS43 KDLH 080811 AAA
TAFINL
TAF AMD
KINL 080811Z 0808/0906 32013G20KT 5SM -SN BLSN SCT025 OVC040
      TEMPO 0808/0812 2SM -SN OVC020
     FM081400 34014G22KT P6SM -SN SCT025 OVC050
     FM082000 32012G20KT P6SM BKN050
     FM090100 33012KT P6SM SCT050=

USA.gov is the U.S. government's official web portal to all federal, state and local government web resources and services.